Time;durP1;ratioP1;P1;durP2;ratioP2;P2;SDS_P1;SDS_P2;PMS_P1;PMS_P2;Temp;Humidity;BMP_temperature;BMP_pressure;BME280_temperature;BME280_humidity;BME280_pressure;Samples;Min_cycle;Max_cycle;Signal;HPM_P1;HPM_P2
2022/04/25 00:00:29;;;;;;;4.38;4.07;;;7.20;99.90;;;;;;5113606;27;20984;-54
2022/04/25 00:03:08;;;;;;;3.83;3.63;;;7.20;99.90;;;;;;5158927;27;20670;-55
2022/04/25 00:05:46;;;;;;;3.75;3.55;;;7.20;99.90;;;;;;5159686;27;21109;-54
2022/04/25 00:08:25;;;;;;;3.80;3.60;;;7.20;99.90;;;;;;5132454;27;20619;-54
2022/04/25 00:11:03;;;;;;;4.10;3.80;;;7.20;99.90;;;;;;5138373;27;20625;-55
2022/04/25 00:13:41;;;;;;;4.10;3.90;;;7.20;99.90;;;;;;5159987;27;20682;-53
2022/04/25 00:16:19;;;;;;;3.70;3.50;;;7.20;99.90;;;;;;5160206;27;21162;-54
2022/04/25 00:18:57;;;;;;;4.03;3.83;;;7.20;99.90;;;;;;5137822;27;20549;-54
2022/04/25 00:21:36;;;;;;;3.67;3.47;;;7.20;99.90;;;;;;5159454;27;20555;-54
2022/04/25 00:24:14;;;;;;;4.07;3.78;;;7.20;99.90;;;;;;5158659;27;20549;-54
2022/04/25 00:26:52;;;;;;;3.60;3.40;;;7.20;99.90;;;;;;5114825;27;20557;-54
2022/04/25 00:29:31;;;;;;;3.63;3.42;;;7.20;99.90;;;;;;5138591;27;20958;-54
2022/04/25 00:32:10;;;;;;;3.78;3.58;;;7.10;99.90;;;;;;5159581;27;20551;-55
2022/04/25 00:34:48;;;;;;;4.13;3.92;;;7.10;99.90;;;;;;5159054;27;20534;-54
2022/04/25 00:37:28;;;;;;;4.22;3.65;;;7.10;99.90;;;;;;5151975;27;20614;-54
2022/04/25 00:40:08;;;;;;;4.25;3.95;;;7.10;99.90;;;;;;5158484;27;20574;-53
2022/04/25 00:42:48;;;;;;;3.80;3.60;;;7.10;99.90;;;;;;5113629;27;20957;-55
2022/04/25 00:45:31;;;;;;;3.63;3.42;;;7.10;99.90;;;;;;5137149;27;20540;-54
2022/04/25 00:48:11;;;;;;;3.42;3.22;;;7.10;99.90;;;;;;5145916;27;21051;-54
2022/04/25 00:50:49;;;;;;;3.40;3.20;;;7.10;99.90;;;;;;5158526;27;20534;-54
2022/04/25 00:53:29;;;;;;;3.88;3.67;;;7.10;99.90;;;;;;5158875;27;21105;-54
2022/04/25 00:56:10;;;;;;;3.65;3.45;;;7.10;99.90;;;;;;5158787;27;20537;-54
2022/04/25 00:58:50;;;;;;;3.63;3.42;;;7.10;99.90;;;;;;5140538;27;20614;-55
2022/04/25 01:01:31;;;;;;;3.03;2.83;;;7.00;99.90;;;;;;5158943;27;20528;-55
2022/04/25 01:04:11;;;;;;;3.10;2.95;;;7.10;99.90;;;;;;5158568;27;20536;-54
2022/04/25 01:06:49;;;;;;;3.50;3.20;;;7.10;99.90;;;;;;5159299;27;20524;-54
2022/04/25 01:09:30;;;;;;;3.35;3.15;;;7.10;99.90;;;;;;5113371;27;20544;-55
2022/04/25 01:12:09;;;;;;;3.08;2.88;;;7.00;99.90;;;;;;5159143;27;20609;-54
2022/04/25 01:14:47;;;;;;;3.70;3.50;;;7.00;99.90;;;;;;5157284;27;20541;-54
2022/04/25 01:17:26;;;;;;;2.97;2.88;;;7.00;99.90;;;;;;5119555;27;21204;-54
2022/04/25 01:20:05;;;;;;;3.13;2.92;;;7.00;99.90;;;;;;5113178;27;20557;-54
2022/04/25 01:22:49;;;;;;;3.05;2.85;;;7.00;99.90;;;;;;5159555;27;20524;-53
2022/04/25 01:28:23;;;;;;;3.10;2.90;;;7.00;99.90;;;;;;5141341;27;21146;-55
2022/04/25 01:31:01;;;;;;;3.53;3.25;;;7.00;99.90;;;;;;5137843;27;21412;-55
2022/04/25 01:33:47;;;;;;;3.08;2.88;;;7.00;99.90;;;;;;5131968;27;20554;-54
2022/04/25 01:36:26;;;;;;;2.90;2.70;;;7.00;99.90;;;;;;5158838;27;20510;-54
2022/04/25 01:39:03;;;;;;;3.13;2.92;;;7.00;99.90;;;;;;5093602;27;20669;-54
2022/04/25 01:41:42;;;;;;;2.78;2.67;;;6.90;99.90;;;;;;5162778;27;20511;-55
2022/04/25 01:44:20;;;;;;;3.10;2.95;;;6.90;99.90;;;;;;5157082;27;21094;-54
2022/04/25 01:46:58;;;;;;;3.28;3.08;;;6.90;99.90;;;;;;5114135;27;20985;-54
2022/04/25 01:49:38;;;;;;;2.90;2.70;;;6.90;99.90;;;;;;5158527;27;20527;-55
2022/04/25 01:52:22;;;;;;;3.35;3.05;;;6.90;99.90;;;;;;5158369;27;20567;-55
2022/04/25 01:55:02;;;;;;;3.08;2.90;;;6.90;99.90;;;;;;5158221;27;20605;-54
2022/04/25 01:57:41;;;;;;;3.28;3.08;;;6.90;99.90;;;;;;5150152;27;20546;-55
2022/04/25 02:00:19;;;;;;;3.15;2.95;;;6.80;99.90;;;;;;5148167;27;20630;-54
2022/04/25 02:02:59;;;;;;;2.95;2.83;;;6.90;99.90;;;;;;5151599;27;20547;-54
2022/04/25 02:05:37;;;;;;;2.88;2.78;;;6.90;99.90;;;;;;5138368;27;20997;-54
2022/04/25 02:08:15;;;;;;;2.80;2.70;;;6.80;99.90;;;;;;5145226;27;21216;-54
2022/04/25 02:13:46;;;;;;;3.40;3.20;;;6.80;99.90;;;;;;5159068;27;21056;-54
2022/04/25 02:16:25;;;;;;;3.20;3.00;;;6.80;99.90;;;;;;5160718;27;20541;-54
2022/04/25 02:19:04;;;;;;;3.20;3.00;;;6.80;99.90;;;;;;5136627;27;21131;-54
2022/04/25 02:21:42;;;;;;;3.20;3.00;;;6.80;99.90;;;;;;5158551;27;20574;-55
2022/04/25 02:24:21;;;;;;;3.70;3.50;;;6.70;99.90;;;;;;5157840;27;20532;-54
2022/04/25 02:27:03;;;;;;;3.20;3.00;;;6.70;99.90;;;;;;5159790;27;20579;-54
2022/04/25 02:29:43;;;;;;;2.75;2.63;;;6.70;99.90;;;;;;5159806;27;20529;-55
2022/04/25 02:32:21;;;;;;;2.90;2.80;;;6.70;99.90;;;;;;5146819;27;20630;-53
2022/04/25 02:35:00;;;;;;;3.33;3.10;;;6.70;99.90;;;;;;5158585;27;20533;-55
2022/04/25 02:37:38;;;;;;;3.83;3.63;;;6.60;99.90;;;;;;5147506;27;20684;-54
2022/04/25 02:40:16;;;;;;;3.85;3.65;;;6.60;99.90;;;;;;5159355;27;21127;-54
2022/04/25 02:42:54;;;;;;;3.65;3.45;;;6.60;99.90;;;;;;5158422;27;20613;-55
2022/04/25 02:45:33;;;;;;;4.40;4.13;;;6.60;99.90;;;;;;5159023;27;20617;-55
2022/04/25 02:48:11;;;;;;;4.15;3.95;;;6.70;99.90;;;;;;5147999;27;20539;-53
2022/04/25 02:50:49;;;;;;;3.90;3.70;;;6.70;99.90;;;;;;5157427;27;20605;-54
2022/04/25 02:53:27;;;;;;;3.15;3.05;;;6.60;99.90;;;;;;5158317;27;21034;-54
2022/04/25 02:56:06;;;;;;;4.40;4.10;;;6.60;99.90;;;;;;5114314;27;20553;-54
2022/04/25 02:58:45;;;;;;;3.38;3.17;;;6.60;99.90;;;;;;5143165;27;20553;-55
2022/04/25 03:01:24;;;;;;;3.30;3.10;;;6.60;99.90;;;;;;5160181;27;20969;-55
2022/04/25 03:04:02;;;;;;;3.53;3.33;;;6.60;99.90;;;;;;5151189;27;20593;-54
2022/04/25 03:06:40;;;;;;;3.20;3.00;;;6.60;99.90;;;;;;5116100;27;20695;-54
2022/04/25 03:09:20;;;;;;;3.08;2.88;;;6.60;99.90;;;;;;5106397;27;20546;-54
2022/04/25 03:11:58;;;;;;;3.13;2.92;;;6.60;99.90;;;;;;5161093;27;20620;-54
2022/04/25 03:14:36;;;;;;;3.05;2.90;;;6.60;99.90;;;;;;5114958;27;20616;-54
2022/04/25 03:17:15;;;;;;;3.00;2.80;;;6.60;99.90;;;;;;5155948;27;20545;-54
2022/04/25 03:19:53;;;;;;;2.42;2.33;;;6.60;99.90;;;;;;5158104;27;21023;-54
2022/04/25 03:22:31;;;;;;;2.92;2.83;;;6.50;99.90;;;;;;5161507;27;20533;-54
2022/04/25 03:25:09;;;;;;;2.63;2.50;;;6.60;99.90;;;;;;5160028;27;20529;-55
2022/04/25 03:27:48;;;;;;;2.72;2.63;;;6.50;99.90;;;;;;5105032;27;20642;-54
2022/04/25 03:30:26;;;;;;;2.85;2.65;;;6.50;99.90;;;;;;5158430;27;20556;-54
2022/04/25 03:33:04;;;;;;;2.95;2.75;;;6.50;99.90;;;;;;5149525;27;21120;-54
2022/04/25 03:35:43;;;;;;;3.15;2.95;;;6.50;99.90;;;;;;5160637;27;20542;-54
2022/04/25 03:38:22;;;;;;;2.47;2.38;;;6.40;99.90;;;;;;5093268;27;21067;-54
2022/04/25 03:41:01;;;;;;;3.45;3.25;;;6.40;99.90;;;;;;5159065;27;20475;-55
2022/04/25 03:43:40;;;;;;;2.83;2.58;;;6.40;99.90;;;;;;5158220;27;20544;-55
2022/04/25 03:46:18;;;;;;;2.90;2.70;;;6.40;99.90;;;;;;5150172;27;21012;-54
2022/04/25 03:48:57;;;;;;;2.90;2.70;;;6.40;99.90;;;;;;5141546;27;20547;-55
2022/04/25 03:51:35;;;;;;;2.80;2.60;;;6.40;99.90;;;;;;5182472;22;20605;-57
2022/04/25 03:57:09;;;;;;;3.28;3.08;;;6.40;99.90;;;;;;5115374;27;20629;-57
2022/04/25 03:57:14;;;;;;;3.40;3.20;;;6.40;99.90;;;;;;5116204;27;20541;-56
2022/04/25 03:59:54;;;;;;;5.50;5.20;;;;;;;;;;5174986;27;20466;-56
2022/04/25 04:02:32;;;;;;;4.32;4.13;;;;;;;;;;5155269;27;20459;-56
2022/04/25 04:05:10;;;;;;;3.78;3.53;;;;;;;;;;5115289;27;20534;-56
2022/04/25 04:07:50;;;;;;;4.03;3.83;;;;;;;;;;5149573;27;20685;-56
2022/04/25 04:10:28;;;;;;;4.10;3.80;;;;;;;;;;5159851;27;20589;-56
2022/04/25 04:13:07;;;;;;;4.90;4.60;;;;;;;;;;5101682;27;20547;-56
2022/04/25 04:15:46;;;;;;;4.35;4.05;;;;;;;;;;5176111;27;20652;-56
2022/04/25 04:18:25;;;;;;;4.35;4.05;;;;;;;;;;5111380;27;20606;-56
2022/04/25 04:21:03;;;;;;;5.13;4.72;;;;;;;;;;5160122;27;20553;-56
2022/04/25 04:23:41;;;;;;;4.95;4.63;;;;;;;;;;5141408;27;20969;-56
2022/04/25 04:26:19;;;;;;;4.53;4.30;;;;;;;;;;5116347;27;20558;-56
2022/04/25 04:28:57;;;;;;;5.03;4.72;;;;;;;;;;5111398;27;20291;-56
2022/04/25 04:31:36;;;;;;;5.00;4.60;;;;;;;;;;5156981;27;20539;-56
2022/04/25 04:34:14;;;;;;;4.50;4.20;;;;;;;;;;5160002;27;20670;-56
2022/04/25 04:36:52;;;;;;;5.22;4.82;;;;;;;;;;5115364;27;20548;-56
2022/04/25 04:39:32;;;;;;;4.97;4.68;;;;;;;;;;5115097;27;20667;-56
2022/04/25 04:42:12;;;;;;;5.35;4.97;;;;;;;;;;5083656;27;20674;-56
2022/04/25 04:44:50;;;;;;;5.40;5.07;;;;;;;;;;5159576;27;20796;-56
2022/04/25 04:47:31;;;;;;;4.72;4.38;;;;;;;;;;5115761;27;20623;-56
2022/04/25 04:50:14;;;;;;;4.35;4.05;;;;;;;;;;5115077;27;20547;-56
2022/04/25 04:52:53;;;;;;;4.72;4.43;;;;;;;;;;5155847;27;20541;-56
2022/04/25 04:55:35;;;;;;;4.50;4.20;;;;;;;;;;5160673;27;20589;-56
2022/04/25 04:58:14;;;;;;;4.47;4.18;;;;;;;;;;5152558;27;20530;-56
2022/04/25 05:00:52;;;;;;;4.78;4.47;;;;;;;;;;5102647;27;20630;-56
2022/04/25 05:03:31;;;;;;;4.38;4.13;;;;;;;;;;5091458;27;20980;-56
2022/04/25 05:06:10;;;;;;;4.50;4.15;;;;;;;;;;5114773;27;20632;-56
2022/04/25 05:08:50;;;;;;;5.25;4.88;;;;;;;;;;5105403;27;20605;-56
2022/04/25 05:11:30;;;;;;;5.30;4.90;;;;;;;;;;5147920;27;20610;-56
2022/04/25 05:14:10;;;;;;;4.65;4.35;;;;;;;;;;5105183;27;20537;-54
2022/04/25 05:16:50;;;;;;;4.97;4.68;;;;;;;;;;5107733;27;20613;-56
2022/04/25 05:19:28;;;;;;;5.63;5.32;;;;;;;;;;5162171;27;20531;-56
2022/04/25 05:22:06;;;;;;;5.53;5.22;;;;;;;;;;5134597;27;20578;-56
2022/04/25 05:24:46;;;;;;;5.43;5.13;;;;;;;;;;5160822;27;20665;-56
2022/04/25 05:27:24;;;;;;;5.68;5.32;;;;;;;;;;5157776;27;20523;-57
2022/04/25 05:30:02;;;;;;;6.03;5.63;;;;;;;;;;5139177;27;20620;-56
2022/04/25 05:32:46;;;;;;;5.85;5.45;;;;;;;;;;5105501;27;20547;-57
2022/04/25 05:35:26;;;;;;;5.75;5.35;;;;;;;;;;5115159;27;20609;-56
2022/04/25 05:38:06;;;;;;;5.55;5.07;;;;;;;;;;5177978;27;20603;-56
2022/04/25 05:40:45;;;;;;;6.00;5.60;;;;;;;;;;5143593;27;20618;-56
2022/04/25 05:43:25;;;;;;;6.53;6.13;;;;;;;;;;5132771;27;20533;-57
2022/04/25 05:46:04;;;;;;;6.35;5.95;;;;;;;;;;5178529;27;20645;-56
2022/04/25 05:54:36;;;;;;;6.60;6.20;;;;;;;;;;5119152;27;20689;-56
2022/04/25 05:57:14;;;;;;;6.45;6.05;;;;;;;;;;5119133;27;20551;-56
2022/04/25 05:59:52;;;;;;;6.55;6.15;;;;;;;;;;5175729;27;20964;-56
2022/04/25 06:02:31;;;;;;;6.60;6.20;;;;;;;;;;5107129;27;20535;-56
2022/04/25 06:05:11;;;;;;;5.97;5.68;;;;;;;;;;5177386;27;20608;-56
2022/04/25 06:07:51;;;;;;;6.75;6.25;;;;;;;;;;5119351;27;20538;-56
2022/04/25 06:10:30;;;;;;;7.15;6.75;;;;;;;;;;5172566;27;20544;-56
2022/04/25 06:13:08;;;;;;;6.35;5.95;;;;;;;;;;5142647;27;21060;-56
2022/04/25 06:15:47;;;;;;;5.90;5.60;;;;;;;;;;5161006;27;20674;-56
2022/04/25 06:18:25;;;;;;;6.78;6.38;;;;;;;;;;5176715;27;20678;-56
2022/04/25 06:21:03;;;;;;;6.10;5.70;;;;;;;;;;5139566;27;20629;-56
2022/04/25 06:23:43;;;;;;;7.07;6.60;;;;;;;;;;5141043;27;20815;-56
2022/04/25 06:26:21;;;;;;;6.40;6.00;;;;;;;;;;5113441;27;20532;-56
2022/04/25 06:28:59;;;;;;;6.78;6.38;;;;;;;;;;5148973;27;21049;-57
2022/04/25 06:31:37;;;;;;;7.00;6.43;;;;;;;;;;5115572;27;21034;-55
2022/04/25 06:34:16;;;;;;;6.88;6.43;;;;;;;;;;5167125;27;20900;-56
2022/04/25 06:36:55;;;;;;;6.38;5.97;;;;;;;;;;5115872;27;20593;-56
2022/04/25 06:39:34;;;;;;;6.18;5.78;;;;;;;;;;5114843;27;20557;-56
2022/04/25 06:42:14;;;;;;;6.82;6.22;;;;;;;;;;5109291;27;20634;-56
2022/04/25 06:44:52;;;;;;;6.78;6.28;;;;;;;;;;5113705;27;20553;-56
2022/04/25 06:47:30;;;;;;;5.78;5.43;;;;;;;;;;5166259;27;20546;-56
2022/04/25 06:50:10;;;;;;;6.07;5.68;;;;;;;;;;5115543;27;20587;-56
2022/04/25 06:52:50;;;;;;;6.47;6.07;;;;;;;;;;5145944;27;20948;-56
2022/04/25 06:55:30;;;;;;;6.20;5.82;;;;;;;;;;5115616;27;20287;-56
2022/04/25 06:58:09;;;;;;;6.20;5.80;;;;;;;;;;5115922;27;20524;-56
2022/04/25 07:00:48;;;;;;;5.82;5.43;;;;;;;;;;5115776;27;20663;-55
2022/04/25 07:03:27;;;;;;;6.80;6.40;;;;;;;;;;5098569;27;20543;-56
2022/04/25 07:06:06;;;;;;;5.63;5.22;;;;;;;;;;5115908;27;20534;-56
2022/04/25 07:08:44;;;;;;;5.72;5.25;;;;;;;;;;5115694;27;20678;-56
2022/04/25 07:11:22;;;;;;;5.90;5.60;;;;;;;;;;5115482;27;21065;-56
2022/04/25 07:14:02;;;;;;;5.93;5.53;;;;;;;;;;5147382;27;20880;-56
2022/04/25 07:16:44;;;;;;;5.88;5.57;;;;;;;;;;5116203;27;20613;-56
2022/04/25 07:19:23;;;;;;;6.13;5.78;;;;;;;;;;5113842;27;21157;-56
2022/04/25 07:30:49;;;;;;;5.60;5.30;;;;;;;;;;5115311;27;20633;-56
2022/04/25 07:33:27;;;;;;;5.80;5.30;;;;;;;;;;5143103;27;20534;-57
2022/04/25 07:36:06;;;;;;;6.10;5.70;;;;;;;;;;5177873;27;20603;-56
2022/04/25 07:38:45;;;;;;;5.10;4.80;;;;;;;;;;5116133;27;20605;-56
2022/04/25 07:41:25;;;;;;;5.60;5.30;;;;;;;;;;5103668;27;20630;-56
2022/04/25 07:44:16;;;;;;;5.57;5.25;;;;;;;;;;5146887;27;20527;-56
2022/04/25 07:46:56;;;;;;;5.50;5.20;;;;;;;;;;5177346;27;20653;-56
2022/04/25 07:49:34;;;;;;;5.90;5.50;;;;;;;;;;5147796;27;20568;-56
2022/04/25 07:52:14;;;;;;;5.07;4.78;;;;;;;;;;5109701;27;20626;-56
2022/04/25 07:54:54;;;;;;;5.70;5.40;;;;;;;;;;5115337;27;20524;-56
2022/04/25 07:57:32;;;;;;;5.15;4.75;;;;;;;;;;5115513;27;20540;-56
2022/04/25 08:00:11;;;;;;;5.43;4.95;;;;;;;;;;5177018;27;20693;-56
2022/04/25 08:02:50;;;;;;;5.22;4.85;;;;;;;;;;5148656;27;20679;-56
2022/04/25 08:05:28;;;;;;;5.15;4.85;;;;;;;;;;5160032;27;20516;-56
2022/04/25 08:08:07;;;;;;;5.35;5.05;;;;;;;;;;5177929;27;20623;-56
2022/04/25 08:10:46;;;;;;;5.13;4.82;;;;;;;;;;5115261;27;20613;-56
2022/04/25 08:19:23;;;;;;;5.97;5.57;;;;;;;;;;5104743;27;20613;-56
2022/04/25 08:22:01;;;;;;;6.18;5.78;;;;;;;;;;5111454;27;20554;-56
2022/04/25 08:24:39;;;;;;;5.88;5.47;;;;;;;;;;5115236;27;20620;-56
2022/04/25 08:27:17;;;;;;;5.65;5.35;;;;;;;;;;5116107;27;21167;-56
2022/04/25 08:29:57;;;;;;;5.85;5.53;;;;;;;;;;5115454;27;20601;-56
2022/04/25 08:32:35;;;;;;;5.53;5.22;;;;;;;;;;5165439;27;20628;-56
2022/04/25 08:35:15;;;;;;;5.85;5.50;;;;;;;;;;5139637;27;20598;-56
2022/04/25 08:37:54;;;;;;;6.00;5.60;;;;;;;;;;5116441;27;20684;-56
2022/04/25 08:40:33;;;;;;;6.80;6.30;;;;;;;;;;5147957;27;20618;-56
2022/04/25 08:43:13;;;;;;;5.47;5.07;;;;;;;;;;5101285;27;20642;-56
2022/04/25 08:45:53;;;;;;;6.68;6.18;;;;;;;;;;5136208;27;20562;-56
2022/04/25 08:48:33;;;;;;;6.55;6.15;;;;;;;;;;5174172;27;20603;-56
2022/04/25 08:51:12;;;;;;;6.93;6.53;;;;;;;;;;5114932;27;20538;-56
2022/04/25 08:53:52;;;;;;;6.13;5.72;;;;;;;;;;5147087;27;20612;-57
2022/04/25 08:56:31;;;;;;;6.15;5.75;;;;;;;;;;5115926;27;20615;-56
2022/04/25 08:59:09;;;;;;;5.80;5.45;;;;;;;;;;5115544;27;20572;-57
2022/04/25 09:01:49;;;;;;;6.82;6.40;;;;;;;;;;5148718;27;21063;-56
2022/04/25 09:04:28;;;;;;;6.28;5.88;;;;;;;;;;5165499;27;20517;-56
2022/04/25 09:07:07;;;;;;;6.45;5.95;;;;;;;;;;5115944;27;20544;-55
2022/04/25 09:09:45;;;;;;;5.88;5.47;;;;;;;;;;5160046;27;20571;-55
2022/04/25 09:12:25;;;;;;;5.88;5.53;;;;;;;;;;5170100;27;20549;-56
2022/04/25 09:15:05;;;;;;;6.50;6.00;;;;;;;;;;5177494;27;20548;-57
2022/04/25 09:17:47;;;;;;;5.72;5.40;;;;;;;;;;5159079;27;20560;-56
2022/04/25 09:20:26;;;;;;;5.53;5.13;;;;;;;;;;5151201;27;20742;-56
2022/04/25 09:23:20;;;;;;;4.75;4.45;;;;;;;;;;5102011;27;20614;-56
2022/04/25 09:26:12;;;;;;;5.50;5.20;;;;;;;;;;5148513;27;20590;-56
2022/04/25 09:28:52;;;;;;;5.93;5.53;;;;;;;;;;5116195;27;20601;-56
2022/04/25 09:31:31;;;;;;;6.05;5.65;;;;;;;;;;5115647;27;20624;-56
2022/04/25 09:34:59;;;;;;;5.40;5.10;;;;;;;;;;5160505;27;20514;-57
2022/04/25 09:37:14;;;;;;;6.07;5.53;;;;;;;;;;5116020;27;20675;-57
2022/04/25 09:40:03;;;;;;;5.40;5.10;;;;;;;;;;5139506;27;20622;-57
2022/04/25 09:42:42;;;;;;;5.43;4.97;;;;;;;;;;5105848;27;20977;-56
2022/04/25 09:45:22;;;;;;;5.45;5.15;;;;;;;;;;5177621;27;20526;-56
2022/04/25 09:48:00;;;;;;;5.22;4.75;;;;;;;;;;5169633;27;20979;-57
2022/04/25 09:50:40;;;;;;;5.88;5.47;;;;;;;;;;5114931;27;20613;-56
2022/04/25 09:53:20;;;;;;;4.88;4.57;;;;;;;;;;5133847;27;20673;-57
2022/04/25 09:56:10;;;;;;;5.38;5.07;;;;;;;;;;5115647;27;20583;-56
2022/04/25 09:59:01;;;;;;;3.00;2.80;;;;;;;;;;5176739;27;21092;-56
2022/04/25 10:01:43;;;;;;;3.47;3.28;;;;;;;;;;5115844;27;20605;-56
2022/04/25 10:04:32;;;;;;;4.10;3.90;;;;;;;;;;5128349;27;21100;-56
2022/04/25 10:07:11;;;;;;;4.47;4.18;;;;;;;;;;5115848;27;20620;-56
2022/04/25 10:09:53;;;;;;;5.13;4.82;;;;;;;;;;5115215;27;21110;-56
2022/04/25 10:12:32;;;;;;;3.28;3.08;;;;;;;;;;5151850;27;20861;-56
2022/04/25 10:15:10;;;;;;;4.03;3.83;;;;;;;;;;5166508;27;20606;-56
2022/04/25 10:17:49;;;;;;;4.25;3.95;;;;;;;;;;5114420;27;20291;-56
2022/04/25 10:20:27;;;;;;;4.13;3.92;;;;;;;;;;5115143;27;21098;-56
2022/04/25 10:23:09;;;;;;;4.53;4.22;;;;;;;;;;5114175;27;20634;-56
2022/04/25 10:25:50;;;;;;;3.67;3.47;;;;;;;;;;5114559;27;20601;-56
2022/04/25 10:28:33;;;;;;;4.22;3.97;;;;;;;;;;5104076;27;20602;-56
2022/04/25 10:31:13;;;;;;;3.30;3.10;;;;;;;;;;5137456;27;20976;-56
2022/04/25 10:33:54;;;;;;;3.45;3.25;;;;;;;;;;5131698;27;20673;-56
2022/04/25 10:36:49;;;;;;;3.28;3.08;;;;;;;;;;5103549;27;20617;-56
2022/04/25 10:39:28;;;;;;;3.35;3.15;;;;;;;;;;5104270;27;20646;-56
2022/04/25 10:45:13;;;;;;;2.38;2.28;;;;;;;;;;5146939;27;20974;-56
2022/04/25 10:47:59;;;;;;;2.55;2.45;;;;;;;;;;5102662;27;20547;-56
2022/04/25 10:50:52;;;;;;;3.05;2.85;;;;;;;;;;5100603;27;20614;-56
2022/04/25 10:53:44;;;;;;;3.20;3.00;;;;;;;;;;5121183;27;20537;-56
2022/04/25 10:56:23;;;;;;;2.50;2.40;;;;;;;;;;5149709;27;20560;-56
2022/04/25 10:59:20;;;;;;;2.45;2.35;;;;;;;;;;5159530;27;20643;-56
2022/04/25 11:01:59;;;;;;;2.20;2.10;;;;;;;;;;5148983;27;21193;-56
2022/04/25 11:04:39;;;;;;;2.20;2.10;;;;;;;;;;5138149;27;21060;-56
2022/04/25 11:07:22;;;;;;;2.40;2.30;;;;;;;;;;5147859;27;20521;-56
2022/04/25 11:10:01;;;;;;;2.45;2.35;;;;;;;;;;5102605;27;20600;-56
2022/04/25 11:12:58;;;;;;;2.50;2.30;;;;;;;;;;5149240;27;20626;-56
2022/04/25 11:15:44;;;;;;;2.83;2.70;;;;;;;;;;5101333;27;20550;-57
2022/04/25 11:18:30;;;;;;;2.88;2.58;;;;;;;;;;5157968;27;20642;-57
2022/04/25 11:21:08;;;;;;;2.58;2.40;;;;;;;;;;5114628;27;20525;-57
2022/04/25 11:23:51;;;;;;;2.65;2.55;;;;;;;;;;5095829;27;20919;-57
2022/04/25 11:26:47;;;;;;;2.35;2.25;;;;;;;;;;5150437;27;20525;-57
2022/04/25 11:29:27;;;;;;;2.72;2.53;;;;;;;;;;5102370;27;20555;-56
2022/04/25 11:32:22;;;;;;;2.30;2.20;;;;;;;;;;5148100;27;20533;-56
2022/04/25 11:35:01;;;;;;;2.80;2.60;;;;;;;;;;5100440;27;20545;-56
2022/04/25 11:37:40;;;;;;;3.38;3.17;;;;;;;;;;5103519;27;20555;-56
2022/04/25 11:40:22;;;;;;;3.25;3.05;;;;;;;;;;5154027;27;20596;-56
2022/04/25 11:43:03;;;;;;;3.20;3.00;;;;;;;;;;5102111;27;20642;-56
2022/04/25 11:45:42;;;;;;;3.08;2.88;;;;;;;;;;5138714;27;20602;-56
2022/04/25 11:48:21;;;;;;;3.47;3.28;;;;;;;;;;5095221;27;20538;-56
2022/04/25 11:51:00;;;;;;;3.30;3.10;;;;;;;;;;5102074;27;20621;-56
2022/04/25 11:53:38;;;;;;;5.88;3.05;;;;;;;;;;5140931;27;20566;-56
2022/04/25 11:56:17;;;;;;;2.63;2.42;;;;;;;;;;5157523;27;20817;-56
2022/04/25 11:58:56;;;;;;;2.40;2.30;;;;;;;;;;5154857;27;20602;-56
2022/04/25 12:01:36;;;;;;;1.90;1.80;;;;;;;;;;5155056;27;20732;-56
2022/04/25 12:04:16;;;;;;;2.17;2.08;;;;;;;;;;5102010;27;21374;-56
2022/04/25 12:06:56;;;;;;;2.30;2.10;;;;;;;;;;5103441;27;20680;-57
2022/04/25 12:15:35;;;;;;;3.13;2.90;;;;;;;;;;5146903;27;21025;-56
2022/04/25 12:18:19;;;;;;;2.90;2.70;;;;;;;;;;5146669;27;20978;-56
2022/04/25 12:21:03;;;;;;;3.55;3.25;;;;;;;;;;5148939;27;20902;-57
2022/04/25 12:23:48;;;;;;;3.30;3.10;;;;;;;;;;5095538;27;20787;-56
2022/04/25 12:26:29;;;;;;;3.38;3.22;;;;;;;;;;5115032;27;20608;-56
2022/04/25 12:29:11;;;;;;;2.45;2.35;;;;;;;;;;5148482;27;20538;-57
2022/04/25 12:31:50;;;;;;;2.30;2.20;;;;;;;;;;5094631;27;20681;-57
2022/04/25 12:34:33;;;;;;;2.45;2.35;;;;;;;;;;5100300;27;20720;-56
2022/04/25 12:37:13;;;;;;;2.30;2.20;;;;;;;;;;5159956;27;20551;-56
2022/04/25 12:40:04;;;;;;;2.22;2.13;;;;;;;;;;5159116;27;20605;-57
2022/04/25 12:42:51;;;;;;;2.08;1.98;;;;;;;;;;5094715;27;20689;-56
2022/04/25 12:45:49;;;;;;;1.42;1.33;;;;;;;;;;5151814;27;20609;-55
2022/04/25 12:48:29;;;;;;;2.10;2.00;;;;;;;;;;5163953;27;20933;-54
2022/04/25 12:51:07;;;;;;;2.30;2.20;;;;;;;;;;5103027;27;20606;-55
2022/04/25 12:53:45;;;;;;;2.40;2.30;;;;;;;;;;5150910;27;20534;-54
2022/04/25 12:56:25;;;;;;;2.72;2.53;;;;;;;;;;5090297;27;20665;-53
2022/04/25 12:59:04;;;;;;;2.80;2.22;;;;;;;;;;5161112;27;20535;-54
2022/04/25 13:01:44;;;;;;;2.22;2.13;;;;;;;;;;5161365;27;20678;-57
2022/04/25 13:04:23;;;;;;;2.00;1.90;;;;;;;;;;5153993;27;21152;-58
2022/04/25 13:07:01;;;;;;;2.40;2.30;;;;;;;;;;5115570;27;20549;-58
2022/04/25 13:09:41;;;;;;;2.20;2.10;;;;;;;;;;5159670;27;21195;-55
2022/04/25 13:12:20;;;;;;;2.78;2.58;;;;;;;;;;5150576;27;20539;-57
2022/04/25 13:14:59;;;;;;;2.45;2.35;;;;;;;;;;5139710;27;21186;-53
2022/04/25 13:17:38;;;;;;;2.83;2.63;;;;;;;;;;5115773;27;20621;-57
2022/04/25 13:20:17;;;;;;;2.55;2.45;;;;;;;;;;5160135;27;20949;-53
2022/04/25 13:22:57;;;;;;;2.15;2.05;;;;;;;;;;5161594;27;20554;-53
2022/04/25 13:25:35;;;;;;;2.10;2.00;;;;;;;;;;5160777;27;20971;-54
2022/04/25 13:28:13;;;;;;;2.30;2.20;;;;;;;;;;5161206;27;20551;-53
2022/04/25 13:30:54;;;;;;;2.08;1.98;;;;;;;;;;5174772;27;20536;-56
2022/04/25 13:33:33;;;;;;;2.22;2.13;;;;;;;;;;5153955;27;20627;-54
2022/04/25 13:36:11;;;;;;;2.38;2.17;;;;;;;;;;5176773;27;20960;-54
2022/04/25 13:38:51;;;;;;;2.40;2.30;;;;;;;;;;5161551;27;20553;-55
2022/04/25 13:41:31;;;;;;;2.38;2.28;;;;;;;;;;5173588;27;20497;-55
2022/04/25 13:44:11;;;;;;;3.25;2.10;;;;;;;;;;5153933;27;20551;-53
2022/04/25 13:46:49;;;;;;;2.88;2.72;;;;;;;;;;5137083;27;20523;-55
2022/04/25 13:49:30;;;;;;;1.63;1.52;;;;;;;;;;5160321;27;20541;-55
2022/04/25 13:52:10;;;;;;;2.15;2.05;;;;;;;;;;5161431;27;20648;-54
2022/04/25 13:54:48;;;;;;;1.85;1.75;;;;;;;;;;5142485;27;20971;-56
2022/04/25 13:57:27;;;;;;;2.00;1.80;;;;;;;;;;5138738;27;20560;-55
2022/04/25 14:00:07;;;;;;;1.90;1.80;;;;;;;;;;5160236;27;20977;-57
2022/04/25 14:03:08;;;;;;;2.10;2.00;;;;;;;;;;5161247;27;20613;-57
2022/04/25 14:05:48;;;;;;;2.15;1.80;;;;;;;;;;5136168;27;20944;-55
2022/04/25 14:08:27;;;;;;;1.83;1.73;;;;;;;;;;5124277;27;20668;-58
2022/04/25 14:11:07;;;;;;;2.03;1.80;;;;;;;;;;5160316;27;20714;-54
2022/04/25 14:13:45;;;;;;;1.52;1.08;;;;;;;;;;5153680;27;20561;-56
2022/04/25 14:16:23;;;;;;;2.05;1.50;;;;;;;;;;5160230;27;20549;-57
2022/04/25 14:19:01;;;;;;;1.60;1.50;;;;;;;;;;5158875;27;21054;-55
2022/04/25 14:21:39;;;;;;;1.67;1.58;;;;;;;;;;5116419;27;20541;-55
2022/04/25 14:24:20;;;;;;;1.60;1.50;;;;;;;;;;5146534;27;20626;-57
2022/04/25 14:26:59;;;;;;;2.00;1.90;;;;;;;;;;5158535;27;20546;-53
2022/04/25 14:29:38;;;;;;;1.23;1.23;;;;;;;;;;5165417;27;20641;-55
2022/04/25 14:32:17;;;;;;;1.50;1.40;;;;;;;;;;5116021;27;20761;-54
2022/04/25 14:34:55;;;;;;;1.50;1.40;;;;;;;;;;5096503;27;21050;-55
2022/04/25 14:37:34;;;;;;;1.33;1.23;;;;;;;;;;5161532;27;20992;-55
2022/04/25 14:40:14;;;;;;;1.65;1.33;;;;;;;;;;5160071;27;21046;-54
2022/04/25 14:42:53;;;;;;;1.70;1.60;;;;;;;;;;5154907;27;20547;-55
2022/04/25 14:45:31;;;;;;;1.50;1.40;;;;;;;;;;5173236;27;20615;-54
2022/04/25 14:48:10;;;;;;;2.28;1.52;;;;;;;;;;5160935;27;21064;-54
2022/04/25 14:56:41;;;;;;;1.42;1.23;;;;;;;;;;5161114;27;20967;-55
2022/04/25 14:59:20;;;;;;;1.35;1.25;;;;;;;;;;5159633;27;20682;-56
2022/04/25 15:01:59;;;;;;;1.13;1.13;;;;;;;;;;5161305;27;20540;-52
2022/04/25 15:04:38;;;;;;;1.27;1.20;;;;;;;;;;5123115;27;20611;-54
2022/04/25 15:07:17;;;;;;;1.40;1.30;;;;;;;;;;5161323;27;20980;-53
2022/04/25 15:09:56;;;;;;;1.33;1.23;;;;;;;;;;5158799;27;20534;-54
2022/04/25 15:12:34;;;;;;;1.35;1.25;;;;;;;;;;5160988;27;20543;-54
2022/04/25 15:15:13;;;;;;;1.75;1.65;;;;;;;;;;5160361;27;20534;-53
2022/04/25 15:17:52;;;;;;;1.70;1.60;;;;;;;;;;5175636;27;20541;-52
2022/04/25 15:20:30;;;;;;;1.40;1.30;;;;;;;;;;5115731;27;20537;-53
2022/04/25 15:23:08;;;;;;;1.33;1.33;;;;;;;;;;5157394;27;20619;-54
2022/04/25 15:25:47;;;;;;;1.13;1.13;;;;;;;;;;5159023;27;21014;-58
2022/04/25 15:28:25;;;;;;;1.20;1.20;;;;;;;;;;5148591;27;20565;-55
2022/04/25 15:31:03;;;;;;;1.60;1.50;;;;;;;;;;5159703;27;20593;-55
2022/04/25 15:33:42;;;;;;;1.40;1.35;;;;;;;;;;5152278;27;20684;-55
2022/04/25 15:36:21;;;;;;;1.30;1.20;;;;;;;;;;5160621;27;20765;-55
2022/04/25 15:38:59;;;;;;;1.38;1.27;;;;;;;;;;5166261;27;20664;-56
2022/04/25 15:41:38;;;;;;;1.63;1.27;;;;;;;;;;5160936;27;20532;-56
2022/04/25 15:44:16;;;;;;;1.55;1.45;;;;;;;;;;5152970;27;20536;-55
2022/04/25 15:46:54;;;;;;;1.75;1.65;;;;;;;;;;5160662;27;21052;-55
2022/04/25 15:49:34;;;;;;;1.58;1.48;;;;;;;;;;5158199;27;21206;-55
2022/04/25 15:52:12;;;;;;;1.42;1.33;;;;;;;;;;5115853;27;20984;-55
2022/04/25 15:57:48;;;;;;;1.38;1.35;;;;;;;;;;5133835;27;20574;-54
2022/04/25 16:00:28;;;;;;;1.48;1.38;;;;;;;;;;5153490;27;20532;-55
2022/04/25 16:03:07;;;;;;;1.45;1.35;;;;;;;;;;5157292;27;20551;-53
2022/04/25 16:05:45;;;;;;;1.20;1.20;;;;;;;;;;5116180;27;20621;-53
2022/04/25 16:08:24;;;;;;;1.35;1.25;;;;;;;;;;5144772;27;21039;-54
2022/04/25 16:11:05;;;;;;;0.98;0.98;;;;;;;;;;5156948;27;20964;-54